sensor_id;sensor_type;location;lat;lon;timestamp;temperature;humidity
2300;DHT22;1158;48.750;9.078;2022-08-30T00:02:13;13.30;99.90
2300;DHT22;1158;48.750;9.078;2022-08-30T00:04:40;13.20;99.90
2300;DHT22;1158;48.750;9.078;2022-08-30T00:07:07;13.20;99.90
2300;DHT22;1158;48.750;9.078;2022-08-30T00:09:33;13.30;99.90
2300;DHT22;1158;48.750;9.078;2022-08-30T00:12:00;13.20;99.90
2300;DHT22;1158;48.750;9.078;2022-08-30T00:14:28;13.20;99.90
2300;DHT22;1158;48.750;9.078;2022-08-30T00:16:55;13.10;99.90
2300;DHT22;1158;48.750;9.078;2022-08-30T00:19:23;13.10;99.90
2300;DHT22;1158;48.750;9.078;2022-08-30T00:21:50;13.10;99.90
2300;DHT22;1158;48.750;9.078;2022-08-30T00:24:16;13.10;99.90
2300;DHT22;1158;48.750;9.078;2022-08-30T00:26:43;13.10;99.90
2300;DHT22;1158;48.750;9.078;2022-08-30T00:29:10;13.00;99.90
2300;DHT22;1158;48.750;9.078;2022-08-30T00:31:36;13.00;99.90
2300;DHT22;1158;48.750;9.078;2022-08-30T00:34:03;13.00;99.90
2300;DHT22;1158;48.750;9.078;2022-08-30T00:36:31;12.90;99.90
2300;DHT22;1158;48.750;9.078;2022-08-30T00:38:58;12.90;99.90
2300;DHT22;1158;48.750;9.078;2022-08-30T00:41:25;12.90;99.90
2300;DHT22;1158;48.750;9.078;2022-08-30T00:43:52;12.90;99.90
2300;DHT22;1158;48.750;9.078;2022-08-30T00:46:19;12.90;99.90
2300;DHT22;1158;48.750;9.078;2022-08-30T00:48:47;12.90;99.90
2300;DHT22;1158;48.750;9.078;2022-08-30T00:51:15;12.80;99.90
2300;DHT22;1158;48.750;9.078;2022-08-30T00:53:47;12.80;99.90
2300;DHT22;1158;48.750;9.078;2022-08-30T00:56:17;12.70;99.90
2300;DHT22;1158;48.750;9.078;2022-08-30T00:58:47;12.70;99.90
2300;DHT22;1158;48.750;9.078;2022-08-30T01:01:14;12.70;99.90
2300;DHT22;1158;48.750;9.078;2022-08-30T01:03:41;12.80;99.90
2300;DHT22;1158;48.750;9.078;2022-08-30T01:06:09;12.70;99.90
2300;DHT22;1158;48.750;9.078;2022-08-30T01:08:36;12.70;99.90
2300;DHT22;1158;48.750;9.078;2022-08-30T01:11:05;12.70;99.90
2300;DHT22;1158;48.750;9.078;2022-08-30T01:13:33;12.70;99.90
2300;DHT22;1158;48.750;9.078;2022-08-30T01:16:01;12.60;99.90
2300;DHT22;1158;48.750;9.078;2022-08-30T01:18:28;12.60;99.90
2300;DHT22;1158;48.750;9.078;2022-08-30T01:21:00;12.60;99.90
2300;DHT22;1158;48.750;9.078;2022-08-30T01:23:33;12.60;99.90
2300;DHT22;1158;48.750;9.078;2022-08-30T01:26:02;12.50;99.90
2300;DHT22;1158;48.750;9.078;2022-08-30T01:28:31;12.50;99.90
2300;DHT22;1158;48.750;9.078;2022-08-30T01:30:58;12.40;99.90
2300;DHT22;1158;48.750;9.078;2022-08-30T01:33:25;12.50;99.90
2300;DHT22;1158;48.750;9.078;2022-08-30T01:35:54;12.50;99.90
2300;DHT22;1158;48.750;9.078;2022-08-30T01:38:25;12.50;99.90
2300;DHT22;1158;48.750;9.078;2022-08-30T01:40:58;12.40;99.90
2300;DHT22;1158;48.750;9.078;2022-08-30T01:43:26;12.40;99.90
2300;DHT22;1158;48.750;9.078;2022-08-30T01:45:53;12.30;99.90
2300;DHT22;1158;48.750;9.078;2022-08-30T01:48:19;12.40;99.90
2300;DHT22;1158;48.750;9.078;2022-08-30T01:50:46;12.40;99.90
2300;DHT22;1158;48.750;9.078;2022-08-30T01:53:13;12.30;99.90
2300;DHT22;1158;48.750;9.078;2022-08-30T01:55:40;12.30;99.90
2300;DHT22;1158;48.750;9.078;2022-08-30T01:58:09;12.30;99.90
2300;DHT22;1158;48.750;9.078;2022-08-30T02:00:36;12.30;99.90
2300;DHT22;1158;48.750;9.078;2022-08-30T02:03:03;12.30;99.90
2300;DHT22;1158;48.750;9.078;2022-08-30T02:05:30;12.30;99.90
2300;DHT22;1158;48.750;9.078;2022-08-30T02:07:57;12.30;99.90
2300;DHT22;1158;48.750;9.078;2022-08-30T02:10:24;12.20;99.90
2300;DHT22;1158;48.750;9.078;2022-08-30T02:12:51;12.20;99.90
2300;DHT22;1158;48.750;9.078;2022-08-30T02:15:19;12.20;99.90
2300;DHT22;1158;48.750;9.078;2022-08-30T02:17:46;12.20;99.90
2300;DHT22;1158;48.750;9.078;2022-08-30T02:20:13;12.20;99.90
2300;DHT22;1158;48.750;9.078;2022-08-30T02:22:39;12.10;99.90
2300;DHT22;1158;48.750;9.078;2022-08-30T02:25:07;12.10;99.90
2300;DHT22;1158;48.750;9.078;2022-08-30T02:27:34;12.10;99.90
2300;DHT22;1158;48.750;9.078;2022-08-30T02:30:02;12.00;99.90
2300;DHT22;1158;48.750;9.078;2022-08-30T02:32:30;12.00;99.90
2300;DHT22;1158;48.750;9.078;2022-08-30T02:34:57;12.00;99.90
2300;DHT22;1158;48.750;9.078;2022-08-30T02:37:24;12.00;99.90
2300;DHT22;1158;48.750;9.078;2022-08-30T02:39:50;12.00;99.90
2300;DHT22;1158;48.750;9.078;2022-08-30T02:42:17;11.90;99.90
2300;DHT22;1158;48.750;9.078;2022-08-30T02:44:44;11.90;99.90
2300;DHT22;1158;48.750;9.078;2022-08-30T02:47:10;12.00;99.90
2300;DHT22;1158;48.750;9.078;2022-08-30T02:49:38;11.90;99.90
2300;DHT22;1158;48.750;9.078;2022-08-30T02:52:05;11.90;99.90
2300;DHT22;1158;48.750;9.078;2022-08-30T02:54:32;11.90;99.90
2300;DHT22;1158;48.750;9.078;2022-08-30T02:56:59;11.90;99.90
2300;DHT22;1158;48.750;9.078;2022-08-30T02:59:29;11.80;99.90
2300;DHT22;1158;48.750;9.078;2022-08-30T03:01:56;11.80;99.90
2300;DHT22;1158;48.750;9.078;2022-08-30T03:04:22;11.80;99.90
2300;DHT22;1158;48.750;9.078;2022-08-30T03:06:50;11.80;99.90
2300;DHT22;1158;48.750;9.078;2022-08-30T03:09:17;11.80;99.90
2300;DHT22;1158;48.750;9.078;2022-08-30T03:11:44;11.80;99.90
2300;DHT22;1158;48.750;9.078;2022-08-30T03:14:10;11.70;99.90
2300;DHT22;1158;48.750;9.078;2022-08-30T03:16:37;11.70;99.90
2300;DHT22;1158;48.750;9.078;2022-08-30T03:19:04;11.70;99.90
2300;DHT22;1158;48.750;9.078;2022-08-30T03:21:30;11.80;99.90
2300;DHT22;1158;48.750;9.078;2022-08-30T03:23:58;11.80;99.90
2300;DHT22;1158;48.750;9.078;2022-08-30T03:26:25;11.80;99.90
2300;DHT22;1158;48.750;9.078;2022-08-30T03:28:52;11.70;99.90
2300;DHT22;1158;48.750;9.078;2022-08-30T03:31:18;11.70;99.90
2300;DHT22;1158;48.750;9.078;2022-08-30T03:33:45;11.70;99.90
2300;DHT22;1158;48.750;9.078;2022-08-30T03:36:12;11.60;99.90
2300;DHT22;1158;48.750;9.078;2022-08-30T03:38:38;11.60;99.90
2300;DHT22;1158;48.750;9.078;2022-08-30T03:41:06;11.50;99.90
2300;DHT22;1158;48.750;9.078;2022-08-30T03:43:34;11.50;99.90
2300;DHT22;1158;48.750;9.078;2022-08-30T03:46:00;11.50;99.90
2300;DHT22;1158;48.750;9.078;2022-08-30T03:48:27;11.50;99.90
2300;DHT22;1158;48.750;9.078;2022-08-30T03:50:54;11.50;99.90
2300;DHT22;1158;48.750;9.078;2022-08-30T03:53:21;11.50;99.90
2300;DHT22;1158;48.750;9.078;2022-08-30T03:55:48;11.50;99.90
2300;DHT22;1158;48.750;9.078;2022-08-30T03:58:16;11.50;99.90
2300;DHT22;1158;48.750;9.078;2022-08-30T04:00:43;11.50;99.90
2300;DHT22;1158;48.750;9.078;2022-08-30T04:03:09;11.50;99.90
2300;DHT22;1158;48.750;9.078;2022-08-30T04:05:36;11.50;99.90
2300;DHT22;1158;48.750;9.078;2022-08-30T04:08:03;11.50;99.90
2300;DHT22;1158;48.750;9.078;2022-08-30T04:10:30;11.40;99.90
2300;DHT22;1158;48.750;9.078;2022-08-30T04:12:57;11.40;99.90
2300;DHT22;1158;48.750;9.078;2022-08-30T04:15:25;11.40;99.90
2300;DHT22;1158;48.750;9.078;2022-08-30T04:17:52;11.40;99.90
2300;DHT22;1158;48.750;9.078;2022-08-30T04:20:19;11.40;99.90
2300;DHT22;1158;48.750;9.078;2022-08-30T04:22:46;11.30;99.90
2300;DHT22;1158;48.750;9.078;2022-08-30T04:25:13;11.30;99.90
2300;DHT22;1158;48.750;9.078;2022-08-30T04:27:40;11.30;99.90
2300;DHT22;1158;48.750;9.078;2022-08-30T04:30:07;11.30;99.90
2300;DHT22;1158;48.750;9.078;2022-08-30T04:32:35;11.20;99.90
2300;DHT22;1158;48.750;9.078;2022-08-30T04:35:03;11.30;99.90
2300;DHT22;1158;48.750;9.078;2022-08-30T04:37:30;11.30;99.90
2300;DHT22;1158;48.750;9.078;2022-08-30T04:39:57;11.30;99.90
2300;DHT22;1158;48.750;9.078;2022-08-30T04:42:25;11.30;99.90
2300;DHT22;1158;48.750;9.078;2022-08-30T04:44:55;11.30;99.90
2300;DHT22;1158;48.750;9.078;2022-08-30T04:47:22;11.30;99.90
2300;DHT22;1158;48.750;9.078;2022-08-30T04:49:51;11.30;99.90
2300;DHT22;1158;48.750;9.078;2022-08-30T04:52:17;11.30;99.90
2300;DHT22;1158;48.750;9.078;2022-08-30T04:54:44;11.30;99.90
2300;DHT22;1158;48.750;9.078;2022-08-30T04:57:11;11.30;99.90
2300;DHT22;1158;48.750;9.078;2022-08-30T04:59:38;11.40;99.90
2300;DHT22;1158;48.750;9.078;2022-08-30T05:02:05;11.40;99.90
2300;DHT22;1158;48.750;9.078;2022-08-30T05:04:31;11.50;99.90
2300;DHT22;1158;48.750;9.078;2022-08-30T05:06:59;11.70;99.90
2300;DHT22;1158;48.750;9.078;2022-08-30T05:09:26;11.80;99.90
2300;DHT22;1158;48.750;9.078;2022-08-30T05:11:53;12.00;99.90
2300;DHT22;1158;48.750;9.078;2022-08-30T05:14:19;12.10;99.90
2300;DHT22;1158;48.750;9.078;2022-08-30T05:16:46;12.20;99.90
2300;DHT22;1158;48.750;9.078;2022-08-30T05:19:13;12.40;99.90
2300;DHT22;1158;48.750;9.078;2022-08-30T05:21:40;12.60;99.90
2300;DHT22;1158;48.750;9.078;2022-08-30T05:24:08;12.80;99.90
2300;DHT22;1158;48.750;9.078;2022-08-30T05:26:37;13.00;99.90
2300;DHT22;1158;48.750;9.078;2022-08-30T05:29:04;13.20;99.90
2300;DHT22;1158;48.750;9.078;2022-08-30T05:31:32;13.30;99.90
2300;DHT22;1158;48.750;9.078;2022-08-30T05:34:00;13.40;99.90
2300;DHT22;1158;48.750;9.078;2022-08-30T05:36:29;13.50;99.90
2300;DHT22;1158;48.750;9.078;2022-08-30T05:38:56;13.60;99.90
2300;DHT22;1158;48.750;9.078;2022-08-30T05:41:26;13.80;99.90
2300;DHT22;1158;48.750;9.078;2022-08-30T05:43:53;13.90;99.90
2300;DHT22;1158;48.750;9.078;2022-08-30T05:46:20;13.90;99.90
2300;DHT22;1158;48.750;9.078;2022-08-30T05:48:49;14.00;99.90
2300;DHT22;1158;48.750;9.078;2022-08-30T05:51:18;14.30;99.90
2300;DHT22;1158;48.750;9.078;2022-08-30T05:53:46;14.90;99.90
2300;DHT22;1158;48.750;9.078;2022-08-30T05:56:15;15.90;99.90
2300;DHT22;1158;48.750;9.078;2022-08-30T05:58:44;16.90;99.90
2300;DHT22;1158;48.750;9.078;2022-08-30T06:01:18;17.80;99.90
2300;DHT22;1158;48.750;9.078;2022-08-30T06:03:46;18.60;99.90
2300;DHT22;1158;48.750;9.078;2022-08-30T06:06:13;19.10;99.90
2300;DHT22;1158;48.750;9.078;2022-08-30T06:08:40;19.60;99.90
2300;DHT22;1158;48.750;9.078;2022-08-30T06:11:10;20.20;99.90
2300;DHT22;1158;48.750;9.078;2022-08-30T06:13:36;20.80;99.90
2300;DHT22;1158;48.750;9.078;2022-08-30T06:16:05;21.30;99.90
2300;DHT22;1158;48.750;9.078;2022-08-30T06:18:32;22.10;99.90
2300;DHT22;1158;48.750;9.078;2022-08-30T06:20:58;23.20;99.90
2300;DHT22;1158;48.750;9.078;2022-08-30T06:23:25;24.00;99.90
2300;DHT22;1158;48.750;9.078;2022-08-30T06:25:53;24.30;99.90
2300;DHT22;1158;48.750;9.078;2022-08-30T06:28:20;24.60;99.90
2300;DHT22;1158;48.750;9.078;2022-08-30T06:30:46;24.40;99.90
2300;DHT22;1158;48.750;9.078;2022-08-30T06:33:14;25.10;99.90
2300;DHT22;1158;48.750;9.078;2022-08-30T06:35:41;25.40;99.90
2300;DHT22;1158;48.750;9.078;2022-08-30T06:38:07;25.00;99.90
2300;DHT22;1158;48.750;9.078;2022-08-30T06:40:35;24.70;99.90
2300;DHT22;1158;48.750;9.078;2022-08-30T06:43:02;24.30;99.90
2300;DHT22;1158;48.750;9.078;2022-08-30T06:45:29;24.60;99.90
2300;DHT22;1158;48.750;9.078;2022-08-30T06:47:57;25.00;99.90
2300;DHT22;1158;48.750;9.078;2022-08-30T06:50:25;25.20;99.90
2300;DHT22;1158;48.750;9.078;2022-08-30T06:52:52;25.20;99.90
2300;DHT22;1158;48.750;9.078;2022-08-30T06:55:19;24.90;99.90
2300;DHT22;1158;48.750;9.078;2022-08-30T06:57:46;24.80;99.90
2300;DHT22;1158;48.750;9.078;2022-08-30T07:00:15;25.20;99.90
2300;DHT22;1158;48.750;9.078;2022-08-30T07:02:42;25.60;99.90
2300;DHT22;1158;48.750;9.078;2022-08-30T07:05:09;26.60;99.90
2300;DHT22;1158;48.750;9.078;2022-08-30T07:07:38;26.70;99.90
2300;DHT22;1158;48.750;9.078;2022-08-30T07:10:06;26.30;99.90
2300;DHT22;1158;48.750;9.078;2022-08-30T07:12:33;26.40;99.90
2300;DHT22;1158;48.750;9.078;2022-08-30T07:15:01;26.90;99.90
2300;DHT22;1158;48.750;9.078;2022-08-30T07:17:28;27.00;99.90
2300;DHT22;1158;48.750;9.078;2022-08-30T07:20:12;26.90;99.90
2300;DHT22;1158;48.750;9.078;2022-08-30T07:22:40;27.10;99.90
2300;DHT22;1158;48.750;9.078;2022-08-30T07:25:07;26.50;99.90
2300;DHT22;1158;48.750;9.078;2022-08-30T07:27:34;25.30;99.90
2300;DHT22;1158;48.750;9.078;2022-08-30T07:30:00;26.30;99.90
2300;DHT22;1158;48.750;9.078;2022-08-30T07:32:27;27.60;99.90
2300;DHT22;1158;48.750;9.078;2022-08-30T07:34:54;28.00;99.90
2300;DHT22;1158;48.750;9.078;2022-08-30T07:37:21;28.20;99.90
2300;DHT22;1158;48.750;9.078;2022-08-30T07:39:49;28.10;99.90
2300;DHT22;1158;48.750;9.078;2022-08-30T07:42:16;27.60;99.90
2300;DHT22;1158;48.750;9.078;2022-08-30T07:44:43;27.40;99.90
2300;DHT22;1158;48.750;9.078;2022-08-30T07:47:10;26.90;99.90
2300;DHT22;1158;48.750;9.078;2022-08-30T07:49:36;26.80;99.90
2300;DHT22;1158;48.750;9.078;2022-08-30T07:52:03;26.50;99.90
2300;DHT22;1158;48.750;9.078;2022-08-30T07:54:30;26.80;99.90
2300;DHT22;1158;48.750;9.078;2022-08-30T07:56:58;26.60;99.90
2300;DHT22;1158;48.750;9.078;2022-08-30T07:59:25;26.80;99.90
2300;DHT22;1158;48.750;9.078;2022-08-30T08:01:51;26.40;99.90
2300;DHT22;1158;48.750;9.078;2022-08-30T08:04:18;25.80;99.90
2300;DHT22;1158;48.750;9.078;2022-08-30T08:06:45;25.40;99.90
2300;DHT22;1158;48.750;9.078;2022-08-30T08:09:12;25.50;99.90
2300;DHT22;1158;48.750;9.078;2022-08-30T08:11:38;25.70;99.90
2300;DHT22;1158;48.750;9.078;2022-08-30T08:14:07;26.00;99.90
2300;DHT22;1158;48.750;9.078;2022-08-30T08:16:35;27.30;99.90
2300;DHT22;1158;48.750;9.078;2022-08-30T08:19:04;27.50;99.90
2300;DHT22;1158;48.750;9.078;2022-08-30T08:21:33;27.90;99.90
2300;DHT22;1158;48.750;9.078;2022-08-30T08:24:00;28.70;99.90
2300;DHT22;1158;48.750;9.078;2022-08-30T08:26:27;29.50;99.90
2300;DHT22;1158;48.750;9.078;2022-08-30T08:28:54;30.00;99.90
2300;DHT22;1158;48.750;9.078;2022-08-30T08:31:23;30.40;99.90
2300;DHT22;1158;48.750;9.078;2022-08-30T08:33:50;30.20;99.80
2300;DHT22;1158;48.750;9.078;2022-08-30T08:36:17;30.70;99.50
2300;DHT22;1158;48.750;9.078;2022-08-30T08:38:43;31.30;98.60
2300;DHT22;1158;48.750;9.078;2022-08-30T08:41:19;30.20;98.60
2300;DHT22;1158;48.750;9.078;2022-08-30T08:43:47;29.90;99.10
2300;DHT22;1158;48.750;9.078;2022-08-30T08:46:18;30.40;98.60
2300;DHT22;1158;48.750;9.078;2022-08-30T08:48:54;30.50;98.40
2300;DHT22;1158;48.750;9.078;2022-08-30T08:51:26;30.80;97.90
2300;DHT22;1158;48.750;9.078;2022-08-30T08:54:14;30.90;96.80
2300;DHT22;1158;48.750;9.078;2022-08-30T08:56:41;30.20;97.50
2300;DHT22;1158;48.750;9.078;2022-08-30T08:59:09;30.90;97.40
2300;DHT22;1158;48.750;9.078;2022-08-30T09:01:37;31.70;96.30
2300;DHT22;1158;48.750;9.078;2022-08-30T09:04:09;32.10;95.00
2300;DHT22;1158;48.750;9.078;2022-08-30T09:06:47;31.70;95.00
2300;DHT22;1158;48.750;9.078;2022-08-30T09:09:18;31.90;94.90
2300;DHT22;1158;48.750;9.078;2022-08-30T09:11:46;31.90;94.90
2300;DHT22;1158;48.750;9.078;2022-08-30T09:14:16;33.00;93.30
2300;DHT22;1158;48.750;9.078;2022-08-30T09:16:50;33.20;92.70
2300;DHT22;1158;48.750;9.078;2022-08-30T09:19:37;31.50;93.20
2300;DHT22;1158;48.750;9.078;2022-08-30T09:22:12;32.10;93.20
2300;DHT22;1158;48.750;9.078;2022-08-30T09:24:42;33.00;93.10
2300;DHT22;1158;48.750;9.078;2022-08-30T09:27:18;33.80;91.90
2300;DHT22;1158;48.750;9.078;2022-08-30T09:29:51;33.90;91.20
2300;DHT22;1158;48.750;9.078;2022-08-30T09:32:23;34.70;90.00
2300;DHT22;1158;48.750;9.078;2022-08-30T09:34:51;33.70;90.60
2300;DHT22;1158;48.750;9.078;2022-08-30T09:37:27;34.90;89.30
2300;DHT22;1158;48.750;9.078;2022-08-30T09:39:55;34.70;86.40
2300;DHT22;1158;48.750;9.078;2022-08-30T09:42:23;34.60;85.50
2300;DHT22;1158;48.750;9.078;2022-08-30T09:44:51;34.90;85.40
2300;DHT22;1158;48.750;9.078;2022-08-30T09:47:35;34.70;84.10
2300;DHT22;1158;48.750;9.078;2022-08-30T09:50:06;33.60;87.30
2300;DHT22;1158;48.750;9.078;2022-08-30T09:52:49;32.90;89.00
2300;DHT22;1158;48.750;9.078;2022-08-30T09:55:31;33.00;90.20
2300;DHT22;1158;48.750;9.078;2022-08-30T09:58:08;33.90;89.20
2300;DHT22;1158;48.750;9.078;2022-08-30T10:00:40;33.60;86.20
2300;DHT22;1158;48.750;9.078;2022-08-30T10:03:22;33.00;87.30
2300;DHT22;1158;48.750;9.078;2022-08-30T10:05:57;32.60;88.00
2300;DHT22;1158;48.750;9.078;2022-08-30T10:08:37;32.50;88.90
2300;DHT22;1158;48.750;9.078;2022-08-30T10:11:11;32.80;87.70
2300;DHT22;1158;48.750;9.078;2022-08-30T10:14:01;33.10;87.30
2300;DHT22;1158;48.750;9.078;2022-08-30T10:16:39;32.30;87.10
2300;DHT22;1158;48.750;9.078;2022-08-30T10:19:19;32.30;88.10
2300;DHT22;1158;48.750;9.078;2022-08-30T10:21:55;32.30;85.60
2300;DHT22;1158;48.750;9.078;2022-08-30T10:24:27;32.10;84.40
2300;DHT22;1158;48.750;9.078;2022-08-30T10:27:01;31.60;85.00
2300;DHT22;1158;48.750;9.078;2022-08-30T10:29:31;31.60;84.30
2300;DHT22;1158;48.750;9.078;2022-08-30T10:32:02;31.80;84.00
2300;DHT22;1158;48.750;9.078;2022-08-30T10:34:33;31.80;86.20
2300;DHT22;1158;48.750;9.078;2022-08-30T10:37:05;31.70;85.50
2300;DHT22;1158;48.750;9.078;2022-08-30T10:39:38;31.50;83.90
2300;DHT22;1158;48.750;9.078;2022-08-30T10:42:09;31.30;85.40
2300;DHT22;1158;48.750;9.078;2022-08-30T10:44:39;31.10;86.70
2300;DHT22;1158;48.750;9.078;2022-08-30T10:47:15;31.00;87.10
2300;DHT22;1158;48.750;9.078;2022-08-30T10:49:45;31.00;86.40
2300;DHT22;1158;48.750;9.078;2022-08-30T10:52:24;31.60;82.80
2300;DHT22;1158;48.750;9.078;2022-08-30T10:54:56;32.10;85.50
2300;DHT22;1158;48.750;9.078;2022-08-30T10:57:25;32.40;82.60
2300;DHT22;1158;48.750;9.078;2022-08-30T10:59:55;33.10;82.10
2300;DHT22;1158;48.750;9.078;2022-08-30T11:03:05;32.80;83.10
2300;DHT22;1158;48.750;9.078;2022-08-30T11:05:49;33.00;82.40
2300;DHT22;1158;48.750;9.078;2022-08-30T11:08:43;33.60;81.00
2300;DHT22;1158;48.750;9.078;2022-08-30T11:11:18;34.20;81.90
2300;DHT22;1158;48.750;9.078;2022-08-30T11:13:46;33.80;81.00
2300;DHT22;1158;48.750;9.078;2022-08-30T11:16:15;33.10;79.60
2300;DHT22;1158;48.750;9.078;2022-08-30T11:18:45;34.20;80.10
2300;DHT22;1158;48.750;9.078;2022-08-30T11:21:22;34.80;76.00
2300;DHT22;1158;48.750;9.078;2022-08-30T11:24:02;33.20;76.20
2300;DHT22;1158;48.750;9.078;2022-08-30T11:26:49;32.90;78.20
2300;DHT22;1158;48.750;9.078;2022-08-30T11:29:37;32.70;79.40
2300;DHT22;1158;48.750;9.078;2022-08-30T11:32:56;33.30;78.60
2300;DHT22;1158;48.750;9.078;2022-08-30T11:35:36;33.80;77.70
2300;DHT22;1158;48.750;9.078;2022-08-30T11:38:12;33.60;79.00
2300;DHT22;1158;48.750;9.078;2022-08-30T11:40:46;34.00;76.50
2300;DHT22;1158;48.750;9.078;2022-08-30T11:43:49;33.50;77.90
2300;DHT22;1158;48.750;9.078;2022-08-30T11:46:18;33.30;78.20
2300;DHT22;1158;48.750;9.078;2022-08-30T11:48:50;32.10;80.70
2300;DHT22;1158;48.750;9.078;2022-08-30T11:51:38;32.60;80.60
2300;DHT22;1158;48.750;9.078;2022-08-30T11:54:17;31.60;80.70
2300;DHT22;1158;48.750;9.078;2022-08-30T11:56:51;32.00;80.70
2300;DHT22;1158;48.750;9.078;2022-08-30T11:59:27;31.70;82.00
2300;DHT22;1158;48.750;9.078;2022-08-30T12:01:55;31.50;82.30
2300;DHT22;1158;48.750;9.078;2022-08-30T12:04:33;30.80;81.70
2300;DHT22;1158;48.750;9.078;2022-08-30T12:07:04;31.20;82.00
2300;DHT22;1158;48.750;9.078;2022-08-30T12:10:03;31.20;81.20
2300;DHT22;1158;48.750;9.078;2022-08-30T12:12:53;31.20;81.30
2300;DHT22;1158;48.750;9.078;2022-08-30T12:21:23;31.60;81.30
2300;DHT22;1158;48.750;9.078;2022-08-30T12:23:56;31.00;81.40
2300;DHT22;1158;48.750;9.078;2022-08-30T12:26:30;31.80;82.20
2300;DHT22;1158;48.750;9.078;2022-08-30T12:29:16;32.30;80.20
2300;DHT22;1158;48.750;9.078;2022-08-30T12:31:46;32.30;80.30
2300;DHT22;1158;48.750;9.078;2022-08-30T12:34:19;32.40;79.90
2300;DHT22;1158;48.750;9.078;2022-08-30T12:36:53;32.30;80.00
2300;DHT22;1158;48.750;9.078;2022-08-30T12:39:26;32.10;80.40
2300;DHT22;1158;48.750;9.078;2022-08-30T12:41:54;31.90;80.50
2300;DHT22;1158;48.750;9.078;2022-08-30T12:44:24;31.70;81.30
2300;DHT22;1158;48.750;9.078;2022-08-30T12:46:56;31.50;82.20
2300;DHT22;1158;48.750;9.078;2022-08-30T12:49:26;31.40;82.30
2300;DHT22;1158;48.750;9.078;2022-08-30T12:51:54;31.00;81.20
2300;DHT22;1158;48.750;9.078;2022-08-30T12:54:25;30.90;82.60
2300;DHT22;1158;48.750;9.078;2022-08-30T12:56:58;30.60;82.80
2300;DHT22;1158;48.750;9.078;2022-08-30T12:59:39;30.40;82.80
2300;DHT22;1158;48.750;9.078;2022-08-30T13:02:10;30.40;82.60
2300;DHT22;1158;48.750;9.078;2022-08-30T13:04:38;30.50;83.00
2300;DHT22;1158;48.750;9.078;2022-08-30T13:07:05;31.50;81.90
2300;DHT22;1158;48.750;9.078;2022-08-30T13:09:34;32.70;80.50
2300;DHT22;1158;48.750;9.078;2022-08-30T13:12:04;33.60;78.40
2300;DHT22;1158;48.750;9.078;2022-08-30T13:14:35;33.80;77.00
2300;DHT22;1158;48.750;9.078;2022-08-30T13:17:21;34.10;74.40
2300;DHT22;1158;48.750;9.078;2022-08-30T13:19:58;33.80;75.40
2300;DHT22;1158;48.750;9.078;2022-08-30T13:22:27;34.30;74.00
2300;DHT22;1158;48.750;9.078;2022-08-30T13:24:56;34.40;75.20
2300;DHT22;1158;48.750;9.078;2022-08-30T13:27:24;34.40;73.30
2300;DHT22;1158;48.750;9.078;2022-08-30T13:29:51;34.80;72.20
2300;DHT22;1158;48.750;9.078;2022-08-30T13:32:18;35.20;71.10
2300;DHT22;1158;48.750;9.078;2022-08-30T13:34:45;34.50;72.30
2300;DHT22;1158;48.750;9.078;2022-08-30T13:37:14;35.00;72.00
2300;DHT22;1158;48.750;9.078;2022-08-30T13:39:42;34.80;72.10
2300;DHT22;1158;48.750;9.078;2022-08-30T13:42:11;34.20;72.90
2300;DHT22;1158;48.750;9.078;2022-08-30T13:44:37;33.20;74.50
2300;DHT22;1158;48.750;9.078;2022-08-30T13:47:04;33.20;75.80
2300;DHT22;1158;48.750;9.078;2022-08-30T13:49:33;33.60;74.60
2300;DHT22;1158;48.750;9.078;2022-08-30T13:52:01;34.50;72.10
2300;DHT22;1158;48.750;9.078;2022-08-30T13:54:28;34.10;73.40
2300;DHT22;1158;48.750;9.078;2022-08-30T13:56:55;34.20;73.00
2300;DHT22;1158;48.750;9.078;2022-08-30T13:59:24;34.20;74.00
2300;DHT22;1158;48.750;9.078;2022-08-30T14:01:53;34.70;72.40
2300;DHT22;1158;48.750;9.078;2022-08-30T14:04:20;34.80;70.90
2300;DHT22;1158;48.750;9.078;2022-08-30T14:06:47;34.70;71.70
2300;DHT22;1158;48.750;9.078;2022-08-30T14:09:13;34.90;70.30
2300;DHT22;1158;48.750;9.078;2022-08-30T14:11:40;34.20;71.90
2300;DHT22;1158;48.750;9.078;2022-08-30T14:14:07;33.80;71.30
2300;DHT22;1158;48.750;9.078;2022-08-30T14:16:37;32.40;73.80
2300;DHT22;1158;48.750;9.078;2022-08-30T14:19:05;32.20;74.70
2300;DHT22;1158;48.750;9.078;2022-08-30T14:21:32;32.80;75.20
2300;DHT22;1158;48.750;9.078;2022-08-30T14:23:59;34.10;73.50
2300;DHT22;1158;48.750;9.078;2022-08-30T14:26:28;34.80;71.90
2300;DHT22;1158;48.750;9.078;2022-08-30T14:28:55;34.80;72.00
2300;DHT22;1158;48.750;9.078;2022-08-30T14:31:21;34.60;71.30
2300;DHT22;1158;48.750;9.078;2022-08-30T14:33:50;34.80;70.50
2300;DHT22;1158;48.750;9.078;2022-08-30T14:36:17;33.50;71.20
2300;DHT22;1158;48.750;9.078;2022-08-30T14:38:44;32.90;73.70
2300;DHT22;1158;48.750;9.078;2022-08-30T14:41:11;32.00;74.40
2300;DHT22;1158;48.750;9.078;2022-08-30T14:43:38;31.40;76.10
2300;DHT22;1158;48.750;9.078;2022-08-30T14:46:06;31.20;76.20
2300;DHT22;1158;48.750;9.078;2022-08-30T14:48:34;31.30;77.60
2300;DHT22;1158;48.750;9.078;2022-08-30T14:51:11;32.10;74.90
2300;DHT22;1158;48.750;9.078;2022-08-30T14:53:38;32.00;74.60
2300;DHT22;1158;48.750;9.078;2022-08-30T14:56:07;32.30;74.80
2300;DHT22;1158;48.750;9.078;2022-08-30T14:58:34;33.20;73.60
2300;DHT22;1158;48.750;9.078;2022-08-30T15:01:00;34.40;71.80
2300;DHT22;1158;48.750;9.078;2022-08-30T15:03:27;35.30;70.30
2300;DHT22;1158;48.750;9.078;2022-08-30T15:05:53;35.80;69.30
2300;DHT22;1158;48.750;9.078;2022-08-30T15:08:21;36.00;67.90
2300;DHT22;1158;48.750;9.078;2022-08-30T15:10:48;35.70;67.70
2300;DHT22;1158;48.750;9.078;2022-08-30T15:13:15;34.70;68.00
2300;DHT22;1158;48.750;9.078;2022-08-30T15:15:42;32.50;69.70
2300;DHT22;1158;48.750;9.078;2022-08-30T15:18:09;31.70;72.60
2300;DHT22;1158;48.750;9.078;2022-08-30T15:20:36;31.30;74.40
2300;DHT22;1158;48.750;9.078;2022-08-30T15:23:04;30.90;76.30
2300;DHT22;1158;48.750;9.078;2022-08-30T15:25:32;30.30;78.30
2300;DHT22;1158;48.750;9.078;2022-08-30T15:27:59;29.90;79.90
2300;DHT22;1158;48.750;9.078;2022-08-30T15:30:26;29.80;80.40
2300;DHT22;1158;48.750;9.078;2022-08-30T15:32:52;29.30;80.70
2300;DHT22;1158;48.750;9.078;2022-08-30T15:35:19;29.10;81.30
2300;DHT22;1158;48.750;9.078;2022-08-30T15:37:46;29.00;81.90
2300;DHT22;1158;48.750;9.078;2022-08-30T15:40:12;28.80;83.00
2300;DHT22;1158;48.750;9.078;2022-08-30T15:42:40;28.80;82.70
2300;DHT22;1158;48.750;9.078;2022-08-30T15:45:08;28.60;83.40
2300;DHT22;1158;48.750;9.078;2022-08-30T15:47:35;28.80;83.30
2300;DHT22;1158;48.750;9.078;2022-08-30T15:50:04;29.60;82.70
2300;DHT22;1158;48.750;9.078;2022-08-30T15:52:32;30.90;81.00
2300;DHT22;1158;48.750;9.078;2022-08-30T15:54:59;31.20;78.90
2300;DHT22;1158;48.750;9.078;2022-08-30T15:57:26;30.90;79.40
2300;DHT22;1158;48.750;9.078;2022-08-30T15:59:53;30.30;79.90
2300;DHT22;1158;48.750;9.078;2022-08-30T16:02:21;30.10;81.30
2300;DHT22;1158;48.750;9.078;2022-08-30T16:04:47;30.10;81.00
2300;DHT22;1158;48.750;9.078;2022-08-30T16:07:14;30.20;80.90
2300;DHT22;1158;48.750;9.078;2022-08-30T16:09:41;30.20;80.90
2300;DHT22;1158;48.750;9.078;2022-08-30T16:12:08;29.80;81.00
2300;DHT22;1158;48.750;9.078;2022-08-30T16:14:34;29.70;81.40
2300;DHT22;1158;48.750;9.078;2022-08-30T16:17:03;29.40;82.00
2300;DHT22;1158;48.750;9.078;2022-08-30T16:19:30;29.40;82.20
2300;DHT22;1158;48.750;9.078;2022-08-30T16:21:57;29.40;82.70
2300;DHT22;1158;48.750;9.078;2022-08-30T16:24:24;29.30;83.40